Time;durP1;ratioP1;P1;durP2;ratioP2;P2;SDS_P1;SDS_P2;PMS_P1;PMS_P2;Temp;Humidity;BMP_temperature;BMP_pressure;BME280_temperature;BME280_humidity;BME280_pressure;Samples;Min_cycle;Max_cycle;Signal;HPM_P1;HPM_P2
2022/01/10 00:01:18;;;;;;;62.20;56.47;;;;;;;3.11;100.00;101162.16;2018507;71;32797;-70
2022/01/10 00:07:02;;;;;;;58.40;52.83;;;;;;;3.19;100.00;101180.22;2002161;71;32951;-71
2022/01/10 00:12:47;;;;;;;56.03;51.03;;;;;;;3.11;100.00;101184.12;2006248;71;33276;-71
2022/01/10 00:18:32;;;;;;;54.93;50.43;;;;;;;3.09;100.00;101188.98;1991451;71;33328;-71
2022/01/10 00:24:16;;;;;;;59.40;53.87;;;;;;;3.29;100.00;101186.03;2013000;71;32891;-71
2022/01/10 00:30:00;;;;;;;53.83;49.20;;;;;;;3.41;100.00;101204.78;2015079;71;32948;-72
2022/01/10 00:35:45;;;;;;;57.97;52.27;;;;;;;3.39;100.00;101221.16;2005503;71;32897;-68
2022/01/10 00:41:30;;;;;;;58.67;53.03;;;;;;;3.54;100.00;101231.24;2000630;71;32910;-68
2022/01/10 00:47:16;;;;;;;57.83;52.57;;;;;;;3.47;100.00;101246.41;1991451;71;32864;-68
2022/01/10 00:53:02;;;;;;;58.87;53.07;;;;;;;3.48;100.00;101256.86;2018673;71;33288;-67
2022/01/10 00:58:48;;;;;;;59.23;53.80;;;;;;;3.56;100.00;101263.42;2008197;71;33310;-67
2022/01/10 01:04:33;;;;;;;58.20;52.27;;;;;;;3.56;100.00;101275.25;2006283;71;32754;-71
2022/01/10 01:11:02;;;;;;;58.23;52.60;;;;;;;3.58;100.00;101289.61;2016761;71;32803;-68
2022/01/10 01:16:45;;;;;;;60.43;54.23;;;;;;;3.51;100.00;101288.82;1995498;71;33343;-67
2022/01/10 01:28:32;;;;;;;62.23;56.03;;;;;;;3.66;100.00;101309.06;2016679;71;33355;-72
2022/01/10 01:34:17;;;;;;;57.10;51.70;;;;;;;3.61;100.00;101322.10;2013501;71;32751;-71
2022/01/10 01:40:02;;;;;;;60.33;54.07;;;;;;;3.66;100.00;101321.42;2004147;71;33344;-69
2022/01/10 01:45:49;;;;;;;59.33;53.77;;;;;;;3.63;100.00;101322.73;2009320;71;32902;-71
2022/01/10 01:51:34;;;;;;;58.17;53.13;;;;;;;3.50;100.00;101337.97;2016729;71;33360;-71
2022/01/10 01:57:20;;;;;;;58.53;52.83;;;;;;;3.70;100.00;101354.77;2009464;71;33431;-71
2022/01/10 02:03:05;;;;;;;59.23;54.10;;;;;;;3.40;100.00;101378.83;2015055;71;32924;-68
2022/01/10 02:08:51;;;;;;;57.43;52.10;;;;;;;3.40;100.00;101387.06;2006417;71;32913;-68
2022/01/10 02:14:36;;;;;;;57.17;51.97;;;;;;;3.53;100.00;101393.81;2007775;71;32857;-68
2022/01/10 02:20:21;;;;;;;58.63;53.20;;;;;;;3.62;100.00;101395.20;2015086;71;32872;-67
2022/01/10 02:26:05;;;;;;;59.67;54.53;;;;;;;3.71;100.00;101399.87;2014881;71;32862;-71
2022/01/10 02:31:50;;;;;;;56.37;51.27;;;;;;;3.78;100.00;101414.91;2011620;71;32817;-68
2022/01/10 02:37:36;;;;;;;54.73;49.97;;;;;;;3.49;100.00;101426.07;2007656;71;32798;-72
2022/01/10 02:43:23;;;;;;;58.90;53.67;;;;;;;3.59;100.00;101429.16;2016924;71;33293;-70
2022/01/10 02:49:11;;;;;;;56.97;51.60;;;;;;;3.47;100.00;101427.66;2016661;71;33322;-67
2022/01/10 02:55:00;;;;;;;58.60;53.10;;;;;;;3.84;100.00;101441.48;2007791;71;32816;-68
2022/01/10 03:00:43;;;;;;;55.47;50.57;;;;;;;3.79;100.00;101449.56;2013083;71;32807;-71
2022/01/10 03:06:27;;;;;;;56.93;51.77;;;;;;;3.78;100.00;101461.09;2011678;71;32839;-69
2022/01/10 03:12:13;;;;;;;55.53;50.30;;;;;;;3.74;100.00;101465.88;1998448;71;32896;-68
2022/01/10 03:17:57;;;;;;;57.40;52.20;;;;;;;3.78;100.00;101476.20;2015014;71;32916;-67
2022/01/10 03:23:42;;;;;;;56.33;51.07;;;;;;;3.90;100.00;101469.42;2000779;71;32763;-72
2022/01/10 03:29:26;;;;;;;56.00;51.07;;;;;;;3.90;100.00;101474.91;2000804;71;33316;-70
2022/01/10 03:35:12;;;;;;;56.20;50.73;;;;;;;3.97;100.00;101486.70;2013436;70;32914;-71
2022/01/10 03:40:57;;;;;;;54.80;50.03;;;;;;;3.88;100.00;101489.43;1998561;71;33303;-67
2022/01/10 03:46:41;;;;;;;56.70;51.90;;;;;;;3.95;100.00;101488.83;2011245;71;32919;-72
2022/01/10 03:52:27;;;;;;;55.93;50.83;;;;;;;4.05;100.00;101494.66;2014777;71;32792;-71
2022/01/10 03:58:11;;;;;;;57.10;52.27;;;;;;;3.97;100.00;101499.08;2019136;71;33394;-68
2022/01/10 04:03:56;;;;;;;56.77;51.40;;;;;;;3.97;100.00;101510.06;2005747;71;32833;-70
2022/01/10 04:09:41;;;;;;;55.70;50.80;;;;;;;3.85;100.00;101516.00;2004029;71;33376;-71
2022/01/10 04:15:25;;;;;;;54.80;49.50;;;;;;;3.77;100.00;101529.99;2018498;71;32850;-71
2022/01/10 04:21:10;;;;;;;55.13;50.60;;;;;;;3.75;100.00;101530.77;2016696;71;32828;-71
2022/01/10 04:26:54;;;;;;;55.37;50.87;;;;;;;3.78;100.00;101551.77;2006127;71;33306;-68
2022/01/10 04:32:37;;;;;;;55.53;50.80;;;;;;;3.76;100.00;101551.16;2009416;71;32863;-68
2022/01/10 04:38:23;;;;;;;54.97;50.23;;;;;;;3.89;100.00;101555.70;2015016;71;33568;-72
2022/01/10 04:44:08;;;;;;;58.17;52.63;;;;;;;3.96;100.00;101559.23;2013551;71;32832;-66
2022/01/10 04:46:39;;;;;;;57.43;52.43;;;;;;;3.89;100.00;101559.30;1966060;72;26310;-67
2022/01/10 04:52:24;;;;;;;57.47;51.97;;;;;;;3.99;100.00;101569.77;2015115;71;32890;-67
2022/01/10 04:58:08;;;;;;;57.43;52.13;;;;;;;4.03;100.00;101583.37;2017129;71;32863;-67
2022/01/10 05:03:53;;;;;;;57.47;51.90;;;;;;;4.16;100.00;101593.41;1997063;71;32734;-68
2022/01/10 05:09:37;;;;;;;56.47;51.33;;;;;;;4.15;100.00;101608.25;2002484;71;32751;-72
2022/01/10 05:15:23;;;;;;;56.87;51.80;;;;;;;4.24;100.00;101615.96;2013089;71;32887;-68
2022/01/10 05:21:08;;;;;;;56.63;51.30;;;;;;;4.30;100.00;101626.61;1997145;71;32786;-69
2022/01/10 05:26:53;;;;;;;57.27;51.93;;;;;;;4.39;100.00;101639.86;2016631;71;32819;-71
2022/01/10 05:32:37;;;;;;;57.43;51.90;;;;;;;4.38;100.00;101635.42;2018437;71;32891;-71
2022/01/10 05:38:23;;;;;;;56.63;51.37;;;;;;;4.41;100.00;101642.36;2005763;71;32817;-70
2022/01/10 05:44:08;;;;;;;59.47;54.33;;;;;;;4.35;100.00;101646.87;2004156;71;33361;-71
2022/01/10 05:50:00;;;;;;;58.40;53.07;;;;;;;4.23;100.00;101652.80;2000778;71;32777;-71
2022/01/10 05:55:39;;;;;;;55.77;51.10;;;;;;;4.19;100.00;101664.47;2015011;71;32815;-70
2022/01/10 06:01:24;;;;;;;56.07;51.13;;;;;;;4.07;100.00;101668.45;2016681;71;33305;-68
2022/01/10 06:07:08;;;;;;;55.57;50.90;;;;;;;3.99;100.00;101677.81;2003851;70;32851;-68
2022/01/10 06:12:53;;;;;;;55.17;50.47;;;;;;;4.05;100.00;101689.31;2014875;71;32944;-68
2022/01/10 06:18:38;;;;;;;54.27;49.57;;;;;;;4.25;100.00;101704.28;2013461;71;33370;-67
2022/01/10 06:24:22;;;;;;;55.13;50.40;;;;;;;4.20;100.00;101721.97;2011682;71;32806;-69
2022/01/10 06:30:06;;;;;;;54.60;49.77;;;;;;;4.32;100.00;101739.44;2000244;71;32830;-72
2022/01/10 06:35:50;;;;;;;53.20;48.30;;;;;;;4.23;100.00;101758.67;2002123;71;32815;-68
2022/01/10 06:41:34;;;;;;;52.77;48.00;;;;;;;4.22;100.00;101765.23;1997198;70;32897;-72
2022/01/10 06:47:19;;;;;;;52.57;47.93;;;;;;;4.27;100.00;101762.66;2013846;71;33272;-69
2022/01/10 06:53:06;;;;;;;52.40;47.97;;;;;;;4.39;100.00;101779.29;2011659;71;33313;-69
2022/01/10 06:58:50;;;;;;;51.93;47.40;;;;;;;4.42;100.00;101795.34;2009367;71;32896;-67
2022/01/10 07:04:35;;;;;;;52.63;48.23;;;;;;;4.47;100.00;101807.38;1995580;71;32819;-68
2022/01/10 07:10:19;;;;;;;53.60;48.57;;;;;;;4.62;100.00;101819.98;2000921;71;32897;-72
2022/01/10 07:16:04;;;;;;;52.47;48.27;;;;;;;4.73;100.00;101839.37;2000621;71;32796;-71
2022/01/10 07:21:48;;;;;;;52.83;48.53;;;;;;;4.50;100.00;101838.56;2006266;70;32822;-72
2022/01/10 07:27:33;;;;;;;54.40;50.00;;;;;;;4.39;100.00;101846.16;1979928;72;33120;-72
2022/01/10 07:33:18;;;;;;;55.97;51.40;;;;;;;4.40;100.00;101834.09;2004012;71;33307;-73
2022/01/10 07:39:02;;;;;;;56.43;51.90;;;;;;;4.59;100.00;101828.98;2011240;71;32888;-70
2022/01/10 07:44:46;;;;;;;56.03;51.30;;;;;;;4.78;100.00;101839.55;2016606;71;32910;-70
2022/01/10 07:50:30;;;;;;;57.93;53.43;;;;;;;4.80;100.00;101866.83;1991410;71;32734;-72
2022/01/10 07:56:15;;;;;;;56.57;52.17;;;;;;;4.72;100.00;101876.73;2007654;71;33386;-73
2022/01/10 08:01:59;;;;;;;57.00;52.23;;;;;;;4.64;100.00;101896.27;1998514;71;32818;-72
2022/01/10 08:07:44;;;;;;;56.50;51.43;;;;;;;4.68;100.00;101905.23;1999451;70;33291;-69
2022/01/10 08:13:29;;;;;;;57.80;52.67;;;;;;;4.78;100.00;101912.48;2015080;71;32846;-73
2022/01/10 08:19:13;;;;;;;56.53;51.73;;;;;;;4.82;100.00;101918.39;2006068;71;32829;-68
2022/01/10 08:24:57;;;;;;;55.80;51.60;;;;;;;4.88;100.00;101921.62;2009408;70;32975;-74
2022/01/10 08:30:41;;;;;;;58.03;52.90;;;;;;;5.03;100.00;101935.41;1940965;74;32968;-74
2022/01/10 08:36:28;;;;;;;58.33;53.37;;;;;;;4.95;100.00;101946.69;1995335;71;32800;-71
2022/01/10 08:42:13;;;;;;;59.37;54.10;;;;;;;5.01;100.00;101964.20;2003829;71;32809;-71
2022/01/10 08:47:57;;;;;;;58.17;53.13;;;;;;;5.02;100.00;101968.13;2018674;71;32911;-70
2022/01/10 08:53:45;;;;;;;58.90;53.77;;;;;;;5.08;100.00;101971.07;1994650;71;32799;-71
2022/01/10 08:59:30;;;;;;;55.83;50.57;;;;;;;5.35;100.00;101976.69;2014909;71;33475;-68
2022/01/10 09:05:15;;;;;;;61.97;57.17;;;;;;;5.45;100.00;101966.87;2005615;71;32816;-69
2022/01/10 09:11:00;;;;;;;58.70;53.73;;;;;;;5.37;100.00;101979.55;2007987;71;32737;-70
2022/01/10 09:16:46;;;;;;;57.03;51.50;;;;;;;5.39;100.00;101993.11;1991207;71;32750;-69
2022/01/10 09:22:30;;;;;;;57.93;53.00;;;;;;;5.50;100.00;102006.16;2005707;70;32813;-72
2022/01/10 09:28:15;;;;;;;57.10;51.77;;;;;;;5.68;100.00;102007.61;2006199;71;32853;-72
2022/01/10 09:33:59;;;;;;;60.63;55.17;;;;;;;5.64;100.00;102013.27;2016788;71;33302;-68
2022/01/10 09:39:45;;;;;;;57.93;53.03;;;;;;;5.74;100.00;102020.48;2006220;71;33291;-72
2022/01/10 09:45:31;;;;;;;55.13;50.20;;;;;;;5.76;100.00;102031.29;2007852;71;32767;-72
2022/01/10 09:51:16;;;;;;;54.73;49.57;;;;;;;5.80;100.00;102033.37;2012908;71;32904;-67
2022/01/10 09:57:00;;;;;;;54.43;49.50;;;;;;;5.88;100.00;102040.55;2000250;71;33381;-69
2022/01/10 10:02:45;;;;;;;55.50;50.63;;;;;;;6.15;100.00;102053.57;1991437;71;32768;-72
2022/01/10 10:08:30;;;;;;;57.43;52.37;;;;;;;6.33;100.00;102063.27;1995322;71;32848;-72
2022/01/10 10:14:18;;;;;;;56.00;51.50;;;;;;;6.19;100.00;102069.98;2000133;71;32818;-69
2022/01/10 10:20:04;;;;;;;55.40;49.90;;;;;;;6.38;100.00;102075.30;2000650;71;32865;-69
2022/01/10 10:25:51;;;;;;;55.43;50.83;;;;;;;6.43;100.00;102076.52;1998933;71;32767;-72
2022/01/10 10:31:37;;;;;;;56.67;51.57;;;;;;;6.52;100.00;102075.16;2016680;71;32921;-72
2022/01/10 10:37:22;;;;;;;56.70;51.80;;;;;;;6.54;100.00;102078.55;2015009;71;32922;-70
2022/01/10 10:43:09;;;;;;;57.33;51.57;;;;;;;6.51;100.00;102088.64;2009446;71;33310;-70
2022/01/10 10:48:58;;;;;;;57.87;52.07;;;;;;;6.65;100.00;102091.58;2015080;71;32954;-72
2022/01/10 10:54:43;;;;;;;57.30;51.90;;;;;;;6.79;100.00;102110.55;1998726;71;32817;-68
2022/01/10 11:00:29;;;;;;;55.10;50.47;;;;;;;6.92;100.00;102112.31;2000592;71;32878;-68
2022/01/10 11:06:15;;;;;;;57.20;51.83;;;;;;;6.94;100.00;102121.73;1995149;71;32833;-71
2022/01/10 11:12:00;;;;;;;56.27;51.20;;;;;;;6.96;100.00;102127.89;2004427;71;32804;-67
2022/01/10 11:17:45;;;;;;;57.30;52.10;;;;;;;7.00;100.00;102124.44;1994857;71;32939;-70
2022/01/10 11:23:30;;;;;;;57.87;52.67;;;;;;;7.12;100.00;102136.39;2016574;71;32935;-69
2022/01/10 11:29:17;;;;;;;54.80;49.43;;;;;;;7.17;100.00;102135.70;1990817;71;33190;-69
2022/01/10 11:35:09;;;;;;;54.73;50.13;;;;;;;7.22;100.00;102138.09;2011847;71;33302;-72
2022/01/10 11:40:57;;;;;;;55.93;51.07;;;;;;;7.19;100.00;102131.63;2015707;71;32840;-67
2022/01/10 11:46:51;;;;;;;55.23;49.90;;;;;;;7.30;100.00;102128.63;2013286;71;32827;-69
2022/01/10 11:52:37;;;;;;;53.63;49.03;;;;;;;7.31;100.00;102136.70;2000900;71;33287;-71
2022/01/10 11:58:25;;;;;;;55.53;50.57;;;;;;;7.33;100.00;102141.45;2008075;71;32819;-68
2022/01/10 12:04:22;;;;;;;52.40;47.80;;;;;;;7.47;100.00;102138.51;2002320;71;33057;-70
2022/01/10 12:10:09;;;;;;;52.93;48.00;;;;;;;7.55;100.00;102147.86;2002268;71;32948;-70
2022/01/10 12:16:00;;;;;;;52.23;47.17;;;;;;;7.53;100.00;102133.44;2011422;71;32946;-72
2022/01/10 12:21:47;;;;;;;52.13;47.40;;;;;;;7.73;100.00;102156.12;2013012;71;33481;-72
2022/01/10 12:27:34;;;;;;;51.50;46.97;;;;;;;7.84;100.00;102157.22;1951314;71;33024;-72
2022/01/10 12:33:20;;;;;;;51.00;46.80;;;;;;;7.89;100.00;102162.90;2008163;71;33251;-69
2022/01/10 12:39:09;;;;;;;52.50;47.97;;;;;;;7.87;100.00;102156.77;2014916;71;32823;-71
2022/01/10 12:44:54;;;;;;;51.57;47.10;;;;;;;7.93;100.00;102152.52;2011743;71;32840;-74
2022/01/10 12:50:40;;;;;;;54.37;49.30;;;;;;;8.09;100.00;102160.13;2009655;71;32822;-73
2022/01/10 12:56:25;;;;;;;53.20;48.10;;;;;;;8.15;100.00;102156.97;2011317;71;32872;-70
2022/01/10 13:02:09;;;;;;;55.50;50.67;;;;;;;8.17;100.00;102173.63;1995253;71;33311;-71
2022/01/10 13:07:58;;;;;;;51.23;46.93;;;;;;;8.24;100.00;102169.37;2014731;71;32840;-73
2022/01/10 13:13:45;;;;;;;53.43;48.67;;;;;;;8.24;100.00;102179.92;1998441;71;32881;-71
2022/01/10 13:19:42;;;;;;;53.47;49.13;;;;;;;8.26;100.00;102180.23;1991500;71;32769;-71
2022/01/10 13:25:28;;;;;;;54.70;50.03;;;;;;;8.31;100.00;102179.83;2009558;71;33356;-71
2022/01/10 13:31:19;;;;;;;56.80;51.47;;;;;;;8.40;100.00;102174.78;2004371;71;32815;-72
2022/01/10 13:37:06;;;;;;;55.60;50.70;;;;;;;8.46;100.00;102173.31;2008202;71;33306;-70
2022/01/10 13:42:59;;;;;;;53.63;48.90;;;;;;;8.60;100.00;102175.31;2005683;71;32882;-72
2022/01/10 13:48:57;;;;;;;57.07;51.43;;;;;;;8.66;100.00;102179.88;1998531;71;32826;-69
2022/01/10 13:54:42;;;;;;;54.00;49.00;;;;;;;8.60;100.00;102167.82;1998946;70;32868;-72
2022/01/10 14:00:38;;;;;;;58.77;53.50;;;;;;;8.62;100.00;102180.05;2016698;71;32823;-70
2022/01/10 14:06:28;;;;;;;56.23;51.43;;;;;;;8.64;100.00;102185.64;2016611;70;32888;-68
2022/01/10 14:12:13;;;;;;;56.17;51.07;;;;;;;8.61;100.00;102184.75;2014966;71;32841;-73
2022/01/10 14:17:59;;;;;;;57.07;51.97;;;;;;;8.65;100.00;102200.34;2013179;71;33004;-75
2022/01/10 14:23:44;;;;;;;57.50;52.57;;;;;;;8.67;100.00;102199.58;2016559;71;33329;-67
2022/01/10 14:29:27;;;;;;;60.23;54.40;;;;;;;8.61;100.00;102200.52;2016448;71;32849;-73
2022/01/10 14:35:12;;;;;;;58.43;53.23;;;;;;;8.59;100.00;102206.86;2016658;71;32898;-69
2022/01/10 14:40:57;;;;;;;61.93;56.40;;;;;;;8.56;100.00;102222.01;2006121;71;32740;-72
2022/01/10 14:46:42;;;;;;;60.47;54.40;;;;;;;8.52;100.00;102224.11;2016459;71;32815;-68
2022/01/10 14:52:28;;;;;;;59.23;53.70;;;;;;;8.58;100.00;102227.32;2000390;71;32894;-71
2022/01/10 14:58:13;;;;;;;62.80;57.33;;;;;;;8.52;100.00;102238.80;1998712;71;33293;-71
2022/01/10 15:03:58;;;;;;;59.97;54.37;;;;;;;8.53;100.00;102244.66;2009430;71;33364;-72
2022/01/10 15:09:45;;;;;;;58.20;52.50;;;;;;;8.29;100.00;102212.46;1878321;70;33228;-72
2022/01/10 15:15:29;;;;;;;61.47;56.30;;;;;;;8.48;100.00;102247.82;2009930;71;32748;-68
2022/01/10 15:21:15;;;;;;;63.80;58.70;;;;;;;8.47;100.00;102251.69;2013173;71;32789;-72
2022/01/10 15:26:59;;;;;;;59.93;54.97;;;;;;;8.45;100.00;102256.07;1996912;70;32874;-68
2022/01/10 15:32:43;;;;;;;60.97;55.10;;;;;;;8.47;100.00;102269.12;2004183;71;32907;-70
2022/01/10 15:38:29;;;;;;;63.27;58.00;;;;;;;8.54;100.00;102286.50;1997006;71;33220;-72
2022/01/10 15:44:13;;;;;;;65.57;59.57;;;;;;;8.44;100.00;102288.14;2003752;71;32895;-72
2022/01/10 15:49:58;;;;;;;61.00;55.50;;;;;;;8.39;100.00;102294.39;2006068;71;33376;-72
2022/01/10 15:55:42;;;;;;;58.50;53.03;;;;;;;8.41;100.00;102304.70;2013267;71;32874;-74
2022/01/10 16:01:27;;;;;;;58.83;53.40;;;;;;;8.39;100.00;102309.61;2007596;71;32865;-71
2022/01/10 16:07:12;;;;;;;63.33;57.97;;;;;;;8.36;100.00;102311.48;1995096;71;33249;-72
2022/01/10 16:12:57;;;;;;;63.57;58.00;;;;;;;8.40;100.00;102316.84;2009492;71;32810;-71
2022/01/10 16:18:41;;;;;;;62.13;56.23;;;;;;;8.42;100.00;102324.39;2011235;71;32822;-69
2022/01/10 16:24:25;;;;;;;63.70;57.77;;;;;;;8.37;100.00;102326.17;2015030;71;32804;-73
2022/01/10 16:30:12;;;;;;;60.93;55.20;;;;;;;8.37;100.00;102340.02;2011471;71;32867;-73
2022/01/10 16:35:57;;;;;;;57.93;52.33;;;;;;;8.41;100.00;102350.39;2014870;71;33275;-70
2022/01/10 16:41:41;;;;;;;56.93;51.53;;;;;;;8.51;100.00;102349.83;2008142;70;32744;-70
2022/01/10 16:47:25;;;;;;;56.40;51.07;;;;;;;8.47;100.00;102352.77;2005678;71;32865;-71
2022/01/10 16:53:11;;;;;;;57.77;52.30;;;;;;;8.48;100.00;102356.67;2011261;71;33353;-73
2022/01/10 16:58:57;;;;;;;57.53;51.90;;;;;;;8.44;100.00;102365.14;1998444;71;32867;-73
2022/01/10 17:04:42;;;;;;;61.43;55.23;;;;;;;8.48;100.00;102369.13;2016761;71;32903;-73
2022/01/10 17:10:27;;;;;;;59.03;53.40;;;;;;;8.53;100.00;102377.59;2015180;71;33317;-74
2022/01/10 17:16:12;;;;;;;56.00;50.97;;;;;;;8.53;100.00;102390.59;2011026;71;32878;-74
2022/01/10 17:21:59;;;;;;;55.70;50.20;;;;;;;8.54;100.00;102392.28;1995320;71;33357;-71
2022/01/10 17:27:44;;;;;;;55.93;50.50;;;;;;;8.59;100.00;102396.05;1960790;72;33548;-74
2022/01/10 17:33:30;;;;;;;54.67;49.60;;;;;;;8.58;100.00;102413.74;2007788;71;32910;-77
2022/01/10 17:39:14;;;;;;;54.63;49.20;;;;;;;8.51;100.00;102404.69;2004089;71;32941;-77
2022/01/10 17:44:58;;;;;;;54.17;49.03;;;;;;;8.56;100.00;102411.73;2004270;71;32875;-75
2022/01/10 17:50:49;;;;;;;55.87;50.37;;;;;;;8.59;100.00;102429.28;2018513;71;32900;-76
2022/01/10 17:56:32;;;;;;;54.63;49.27;;;;;;;8.63;100.00;102433.81;2011185;71;33318;-72
2022/01/10 18:02:16;;;;;;;55.17;49.90;;;;;;;8.58;100.00;102446.98;1883348;75;85302;-75
2022/01/10 18:08:01;;;;;;;54.40;49.47;;;;;;;8.50;100.00;102450.61;1863772;75;86484;-77
2022/01/10 18:13:45;;;;;;;55.27;50.37;;;;;;;8.48;100.00;102465.21;1948100;71;39624;-70
2022/01/10 18:19:30;;;;;;;55.63;50.60;;;;;;;8.48;100.00;102475.75;1902305;74;85473;-78
2022/01/10 18:25:17;;;;;;;58.80;53.40;;;;;;;8.23;100.00;102473.57;1869989;74;86393;-69
2022/01/10 18:31:00;;;;;;;58.87;53.27;;;;;;;8.41;100.00;102469.99;1901111;72;86131;-74
2022/01/10 18:36:44;;;;;;;56.17;51.30;;;;;;;8.36;100.00;102469.30;1894902;74;85794;-79
2022/01/10 18:42:28;;;;;;;53.37;48.23;;;;;;;8.47;100.00;102484.31;1810679;78;86673;-69
2022/01/10 18:48:12;;;;;;;55.87;50.70;;;;;;;8.66;100.00;102495.13;1915338;74;86460;-75
2022/01/10 18:53:59;;;;;;;54.13;49.03;;;;;;;8.73;100.00;102504.73;1982286;71;39540;-75
2022/01/10 18:59:43;;;;;;;56.80;49.90;;;;;;;8.64;100.00;102514.46;1802461;78;86134;-75
2022/01/10 19:05:27;;;;;;;54.27;48.60;;;;;;;8.48;100.00;102515.91;1807178;78;86621;-75
2022/01/10 19:11:12;;;;;;;53.07;47.90;;;;;;;8.58;100.00;102520.91;1919649;72;86343;-69
2022/01/10 19:16:56;;;;;;;50.67;45.83;;;;;;;8.53;100.00;102527.68;1950989;71;39551;-69
2022/01/10 19:22:40;;;;;;;51.77;47.03;;;;;;;8.48;100.00;102528.37;1844770;76;86432;-70
2022/01/10 19:28:23;;;;;;;52.53;47.67;;;;;;;8.57;100.00;102531.14;1873135;75;86270;-70
2022/01/10 19:34:07;;;;;;;52.10;47.20;;;;;;;8.48;100.00;102529.76;1932990;73;85486;-70
2022/01/10 19:39:52;;;;;;;50.63;45.73;;;;;;;8.43;100.00;102530.16;1985948;70;39659;-75
2022/01/10 19:45:36;;;;;;;50.97;46.20;;;;;;;8.52;100.00;102537.91;1834904;76;86898;-71
2022/01/10 19:51:21;;;;;;;53.97;48.27;;;;;;;8.48;100.00;102547.76;1867346;75;86568;-74
2022/01/10 19:57:06;;;;;;;51.63;46.70;;;;;;;8.58;100.00;102549.47;1913283;72;86448;-77
2022/01/10 20:05:57;;;;;;;51.20;46.10;;;;;;;8.61;100.00;102565.62;1981999;69;39530;-71
2022/01/10 20:08:27;;;;;;;50.37;45.13;;;;;;;8.79;100.00;102574.47;1884986;74;934556;-70
2022/01/10 20:10:58;;;;;;;48.83;44.33;;;;;;;8.80;100.00;102578.94;1820432;75;1056709;-73
2022/01/10 20:13:29;;;;;;;48.70;43.50;;;;;;;8.88;100.00;102580.55;1917746;73;938862;-69
2022/01/10 20:15:59;;;;;;;47.80;43.67;;;;;;;8.78;100.00;102583.85;1905679;73;938837;-67
2022/01/10 20:18:29;;;;;;;47.87;43.77;;;;;;;8.83;100.00;102590.09;1915877;73;936853;-68
2022/01/10 20:20:59;;;;;;;49.77;44.95;;;;;;;8.80;100.00;102591.41;1877427;74;938790;-71
2022/01/10 20:23:30;;;;;;;48.27;43.20;;;;;;;8.87;100.00;102592.70;1868802;74;936699;-70
2022/01/10 20:29:14;;;;;;;50.47;45.27;;;;;;;9.06;100.00;102598.02;1871209;75;85749;-75
2022/01/10 20:34:58;;;;;;;49.53;44.37;;;;;;;8.95;100.00;102602.94;1880795;74;86749;-69
2022/01/10 20:40:43;;;;;;;49.30;44.17;;;;;;;9.14;100.00;102607.41;1980831;71;86468;-70
2022/01/10 20:46:27;;;;;;;45.67;41.13;;;;;;;9.30;100.00;102611.98;1809739;78;86450;-70
2022/01/10 20:52:11;;;;;;;47.40;43.20;;;;;;;9.38;100.00;102613.05;1903005;72;86260;-69
2022/01/10 20:57:56;;;;;;;46.20;41.97;;;;;;;9.41;100.00;102616.77;1982492;71;40194;-69
2022/01/10 21:03:42;;;;;;;45.47;41.17;;;;;;;9.37;100.00;102616.92;1821845;76;86269;-70
2022/01/10 21:09:26;;;;;;;46.00;42.30;;;;;;;9.45;100.00;102631.31;1807775;78;86436;-77
2022/01/10 21:15:16;;;;;;;45.17;40.77;;;;;;;9.53;100.00;102630.13;1915690;74;86379;-70
2022/01/10 21:21:02;;;;;;;52.87;48.87;;;;;;;9.55;100.00;102631.58;1914142;72;85502;-78
2022/01/10 21:26:49;;;;;;;53.10;48.37;;;;;;;9.53;100.00;102635.69;1979626;71;39540;-74
2022/01/10 21:32:32;;;;;;;54.00;49.57;;;;;;;9.57;100.00;102632.20;1836168;76;86535;-75
2022/01/10 21:38:18;;;;;;;51.93;47.90;;;;;;;9.55;100.00;102634.89;1870983;75;86179;-70
2022/01/10 21:44:03;;;;;;;56.87;52.40;;;;;;;9.53;100.00;102639.31;1926679;73;86302;-69
2022/01/10 21:49:48;;;;;;;53.03;48.90;;;;;;;9.51;100.00;102637.83;1980044;71;39522;-69
2022/01/10 21:55:33;;;;;;;53.20;49.03;;;;;;;9.53;100.00;102644.86;1888287;74;85636;-73
2022/01/10 22:01:17;;;;;;;52.90;48.87;;;;;;;9.56;100.00;102651.85;1873314;73;86525;-75
2022/01/10 22:07:01;;;;;;;54.47;50.13;;;;;;;9.52;100.00;102651.48;1916000;74;86491;-73
2022/01/10 22:12:49;;;;;;;52.40;48.27;;;;;;;9.49;100.00;102657.50;1953811;71;39701;-73
2022/01/10 22:18:35;;;;;;;55.27;50.73;;;;;;;9.53;100.00;102668.44;1831103;76;85906;-68
2022/01/10 22:24:19;;;;;;;52.57;48.83;;;;;;;9.51;100.00;102669.73;1840842;76;86485;-68
2022/01/10 22:30:02;;;;;;;55.27;50.93;;;;;;;9.53;100.00;102671.21;1929118;72;86404;-67
2022/01/10 22:35:50;;;;;;;55.40;51.33;;;;;;;9.54;100.00;102669.28;1942906;71;46441;-69
2022/01/10 22:41:34;;;;;;;46.23;42.37;;;;;;;9.52;100.00;102673.67;1841617;76;85665;-69
2022/01/10 22:47:19;;;;;;;47.47;43.80;;;;;;;9.56;100.00;102668.50;1873695;75;86236;-68
2022/01/10 22:53:03;;;;;;;48.90;44.93;;;;;;;9.48;100.00;102672.98;1866963;75;86475;-68
2022/01/10 22:58:50;;;;;;;49.07;45.37;;;;;;;9.50;100.00;102680.52;1979334;71;39494;-68
2022/01/10 23:04:34;;;;;;;48.23;44.20;;;;;;;9.48;100.00;102681.31;1856286;76;86564;-69
2022/01/10 23:10:19;;;;;;;46.17;42.07;;;;;;;9.54;100.00;102685.94;1864179;76;86525;-75
2022/01/10 23:16:03;;;;;;;49.37;44.90;;;;;;;9.51;100.00;102691.39;1885832;75;85793;-68
2022/01/10 23:21:49;;;;;;;48.43;44.50;;;;;;;9.51;100.00;102700.25;1932018;71;39520;-68
2022/01/10 23:27:33;;;;;;;44.23;40.67;;;;;;;9.54;100.00;102702.02;1793360;78;85569;-69
2022/01/10 23:33:16;;;;;;;47.50;43.50;;;;;;;9.57;100.00;102702.11;1892064;75;85401;-75
2022/01/10 23:39:02;;;;;;;46.37;42.47;;;;;;;9.52;100.00;102712.52;1911979;74;86454;-75
2022/01/10 23:44:48;;;;;;;46.63;42.50;;;;;;;9.64;100.00;102718.65;1977295;71;39650;-68
2022/01/10 23:50:36;;;;;;;44.73;40.83;;;;;;;9.66;100.00;102731.23;1883838;75;86865;-76
2022/01/10 23:56:18;;;;;;;46.97;43.07;;;;;;;9.62;100.00;102734.17;1882552;73;86612;-68
